Time,TemperatureF,DewpointF,PressureIn,WindDirection,WindDirectionDegrees,WindSpeedMPH,WindSpeedGustMPH,Humidity,HourlyPrecipIn,Conditions,Clouds,dailyrainin,SolarRadiationWatts/m^2,SoftwareType,DateUTC
2013-05-06 00:00:00,45.8,43.6,30.28,SSE,148,7.0,13.0,92,0.00,,---,0.00,0.00,VWS V14.01,2013-05-06 04:00:00,
2013-05-06 00:01:00,45.8,43.6,30.28,ESE,113,7.0,13.0,92,0.00,,---,0.00,0.00,VWS V14.01,2013-05-06 04:01:00,
2013-05-06 00:06:00,45.8,43.6,30.29,ESE,123,6.0,9.0,92,0.00,,---,0.00,0.00,VWS V14.01,2013-05-06 04:06:00,
2013-05-06 00:11:00,45.8,43.6,30.29,ESE,111,9.0,11.0,92,0.00,,---,0.00,0.00,VWS V14.01,2013-05-06 04:11:00,
2013-05-06 00:15:00,45.8,43.3,30.28,ESE,105,8.0,12.0,91,0.00,,,0.00,0.00,VWS V14.01,2013-05-06 04:15:00,
2013-05-06 00:16:00,45.6,43.4,30.28,East,85,5.0,12.0,92,0.00,,---,0.00,0.00,VWS V14.01,2013-05-06 04:16:00,
2013-05-06 00:21:00,45.3,43.1,30.28,ESE,104,8.0,11.0,92,0.00,,---,0.00,0.00,VWS V14.01,2013-05-06 04:21:00,
2013-05-06 00:26:00,45.3,43.1,30.28,ESE,122,5.0,11.0,92,0.00,,---,0.00,0.00,VWS V14.01,2013-05-06 04:26:00,
2013-05-06 00:30:00,45.7,43.2,30.29,ESE,111,4.0,14.0,91,0.00,,,0.00,0.00,VWS V14.01,2013-05-06 04:30:00,
2013-05-06 00:31:00,45.4,43.2,30.28,ESE,119,7.0,11.0,92,0.00,,---,0.00,0.00,VWS V14.01,2013-05-06 04:31:00,
2013-05-06 00:36:00,45.5,43.6,30.28,SE,136,9.0,12.0,93,0.00,,---,0.00,0.00,VWS V14.01,2013-05-06 04:36:00,
2013-05-06 00:41:00,45.4,43.2,30.28,East,92,7.0,12.0,92,0.00,,---,0.00,0.00,VWS V14.01,2013-05-06 04:41:00,
2013-05-06 00:45:00,45.8,43.6,30.29,ESE,109,8.0,12.0,92,0.00,,,0.00,0.00,VWS V14.01,2013-05-06 04:45:00,
2013-05-06 00:46:00,45.2,43.0,30.28,East,92,11.0,12.0,92,0.00,,---,0.00,0.00,VWS V14.01,2013-05-06 04:46:00,
2013-05-06 00:51:00,45.2,43.0,30.28,SE,126,1.0,11.0,92,0.00,,---,0.00,0.00,VWS V14.01,2013-05-06 04:51:00,
2013-05-06 00:56:00,45.4,43.5,30.28,ENE,74,3.0,11.0,93,0.00,,---,0.00,0.00,VWS V14.01,2013-05-06 04:56:00,
2013-05-06 01:00:00,45.8,43.6,30.28,ESE,103,7.0,13.0,92,0.00,,,0.00,0.00,VWS V14.01,2013-05-06 05:00:00,
2013-05-06 01:01:00,45.4,43.5,30.28,SE,125,5.0,5.0,93,0.00,,---,0.00,0.00,VWS V14.01,2013-05-06 05:01:00,
2013-05-06 01:06:00,45.4,43.5,30.27,ESE,115,6.0,9.0,93,0.00,,---,0.00,0.00,VWS V14.01,2013-05-06 05:06:00,
2013-05-06 01:11:00,45.4,43.5,30.27,East,84,3.0,9.0,93,0.00,,---,0.00,0.00,VWS V14.01,2013-05-06 05:11:00,
2013-05-06 01:15:00,45.6,43.4,30.28,East,96,7.0,12.0,92,0.00,,,0.00,0.00,VWS V14.01,2013-05-06 05:15:00,
2013-05-06 01:16:00,45.4,43.5,30.27,East,99,4.0,4.0,93,0.00,,---,0.00,0.00,VWS V14.01,2013-05-06 05:16:00,
2013-05-06 01:21:00,45.4,43.5,30.27,ENE,69,2.0,5.0,93,0.00,,---,0.00,0.00,VWS V14.01,2013-05-06 05:21:00,
2013-05-06 01:26:00,45.3,43.4,30.27,ESE,103,8.0,8.0,93,0.00,,---,0.00,0.00,VWS V14.01,2013-05-06 05:26:00,
2013-05-06 01:30:00,45.4,43.2,30.28,ESE,119,7.0,11.0,92,0.00,,,0.00,0.00,VWS V14.01,2013-05-06 05:30:00,
2013-05-06 01:31:00,45.3,43.4,30.26,East,81,6.0,9.0,93,0.00,,---,0.00,0.00,VWS V14.01,2013-05-06 05:31:00,
2013-05-06 01:36:00,45.2,43.3,30.26,ENE,58,4.0,6.0,93,0.00,,---,0.00,0.00,VWS V14.01,2013-05-06 05:36:00,
2013-05-06 01:41:00,45.1,43.2,30.26,East,88,2.0,6.0,93,0.00,,---,0.00,0.00,VWS V14.01,2013-05-06 05:41:00,
2013-05-06 01:45:00,45.2,43.0,30.28,East,92,11.0,12.0,92,0.00,,,0.00,0.00,VWS V14.01,2013-05-06 05:45:00,
2013-05-06 01:46:00,45.0,43.1,30.26,East,97,0.0,0.0,93,0.00,,---,0.00,0.00,VWS V14.01,2013-05-06 05:46:00,
2013-05-06 01:51:00,45.0,43.1,30.26,East,94,4.0,6.0,93,0.00,,---,0.00,0.00,VWS V14.01,2013-05-06 05:51:00,
2013-05-06 01:56:00,45.1,43.5,30.26,East,82,3.0,8.0,94,0.00,,---,0.00,0.00,VWS V14.01,2013-05-06 05:56:00,
2013-05-06 02:00:00,45.4,43.5,30.28,SE,125,4.0,11.0,93,0.00,,,0.00,0.00,VWS V14.01,2013-05-06 06:00:00,
2013-05-06 02:01:00,45.2,43.6,30.26,East,79,3.0,3.0,94,0.00,,---,0.00,0.00,VWS V14.01,2013-05-06 06:01:00,
2013-05-06 02:06:00,45.3,43.7,30.26,ESE,112,2.0,5.0,94,0.00,,---,0.00,0.00,VWS V14.01,2013-05-06 06:06:00,
2013-05-06 02:11:00,45.2,43.6,30.26,East,95,4.0,5.0,94,0.00,,---,0.00,0.00,VWS V14.01,2013-05-06 06:11:00,
2013-05-06 02:15:00,45.4,43.5,30.27,East,99,4.0,9.0,93,0.00,,,0.00,0.00,VWS V14.01,2013-05-06 06:15:00,
2013-05-06 02:16:00,45.2,43.6,30.26,ESE,119,9.0,9.0,94,0.00,,---,0.00,0.00,VWS V14.01,2013-05-06 06:16:00,
2013-05-06 02:21:00,45.1,43.2,30.26,SE,136,5.0,9.0,93,0.00,,---,0.00,0.00,VWS V14.01,2013-05-06 06:21:00,
2013-05-06 02:26:00,45.1,43.5,30.26,ENE,74,2.0,9.0,94,0.00,,---,0.00,0.00,VWS V14.01,2013-05-06 06:26:00,
2013-05-06 02:30:00,45.3,43.4,30.26,East,81,6.0,9.0,93,0.00,,,0.00,0.00,VWS V14.01,2013-05-06 06:30:00,
2013-05-06 02:31:00,45.0,43.1,30.26,ESE,123,6.0,6.0,93,0.00,,---,0.00,0.00,VWS V14.01,2013-05-06 06:31:00,
2013-05-06 02:36:00,44.9,43.3,30.26,SE,131,6.0,6.0,94,0.00,,---,0.00,0.00,VWS V14.01,2013-05-06 06:36:00,
2013-05-06 02:41:00,44.9,43.3,30.26,SSE,159,2.0,6.0,94,0.00,,---,0.00,0.00,VWS V14.01,2013-05-06 06:41:00,
2013-05-06 02:45:00,45.0,43.1,30.26,East,97,0.0,6.0,93,0.00,,,0.00,0.00,VWS V14.01,2013-05-06 06:45:00,
2013-05-06 02:46:00,44.9,43.3,30.26,South,171,4.0,5.0,94,0.00,,---,0.00,0.00,VWS V14.01,2013-05-06 06:46:00,
2013-05-06 02:51:00,44.9,43.3,30.26,SW,219,0.0,5.0,94,0.00,,---,0.00,0.00,VWS V14.01,2013-05-06 06:51:00,
2013-05-06 02:56:00,44.9,43.3,30.26,ESE,105,6.0,7.0,94,0.00,,---,0.00,0.00,VWS V14.01,2013-05-06 06:56:00,
2013-05-06 03:00:00,45.2,43.6,30.26,East,80,3.0,8.0,94,0.00,,,0.00,0.00,VWS V14.01,2013-05-06 07:00:00,
2013-05-06 03:01:00,44.8,43.2,30.26,ESE,116,7.0,8.0,94,0.00,,---,0.00,0.00,VWS V14.01,2013-05-06 07:01:00,
2013-05-06 03:06:00,44.7,43.1,30.26,ESE,113,7.0,9.0,94,0.00,,---,0.00,0.00,VWS V14.01,2013-05-06 07:06:00,
2013-05-06 03:11:00,44.7,43.1,30.26,ESE,113,7.0,11.0,94,0.00,,---,0.00,0.00,VWS V14.01,2013-05-06 07:11:00,
2013-05-06 03:15:00,45.2,43.6,30.26,ESE,113,4.0,8.0,94,0.00,,,0.00,0.00,VWS V14.01,2013-05-06 07:15:00,
2013-05-06 03:16:00,44.7,43.1,30.26,ESE,116,2.0,2.0,94,0.00,,---,0.00,0.00,VWS V14.01,2013-05-06 07:16:00,
2013-05-06 03:21:00,44.7,43.1,30.26,ESE,116,0.0,2.0,94,0.00,,---,0.00,0.00,VWS V14.01,2013-05-06 07:21:00,
2013-05-06 03:26:00,44.7,43.1,30.26,ESE,116,0.0,2.0,94,0.00,,---,0.00,0.00,VWS V14.01,2013-05-06 07:26:00,
2013-05-06 03:30:00,45.0,43.1,30.26,ESE,123,6.0,9.0,93,0.00,,,0.00,0.00,VWS V14.01,2013-05-06 07:30:00,
2013-05-06 03:31:00,44.8,43.2,30.26,ENE,78,3.0,3.0,94,0.00,,---,0.00,0.00,VWS V14.01,2013-05-06 07:31:00,
2013-05-06 03:36:00,44.8,43.2,30.26,ENE,68,5.0,5.0,94,0.00,,---,0.00,0.00,VWS V14.01,2013-05-06 07:36:00,
2013-05-06 03:41:00,44.8,43.2,30.26,NE,42,3.0,6.0,94,0.00,,---,0.00,0.00,VWS V14.01,2013-05-06 07:41:00,
2013-05-06 03:45:00,44.9,43.3,30.26,South,169,2.0,6.0,94,0.00,,,0.00,0.00,VWS V14.01,2013-05-06 07:45:00,
2013-05-06 03:46:00,44.7,43.1,30.26,NE,49,3.0,3.0,94,0.00,,---,0.00,0.00,VWS V14.01,2013-05-06 07:46:00,
2013-05-06 03:51:00,44.7,43.1,30.26,ENE,58,6.0,7.0,94,0.00,,---,0.00,0.00,VWS V14.01,2013-05-06 07:51:00,
2013-05-06 03:56:00,44.7,43.1,30.26,ENE,67,4.0,7.0,94,0.00,,---,0.00,0.00,VWS V14.01,2013-05-06 07:56:00,
2013-05-06 04:00:00,44.8,43.2,30.26,ESE,113,8.0,9.0,94,0.00,,,0.00,0.00,VWS V14.01,2013-05-06 08:00:00,
2013-05-06 04:01:00,44.7,43.1,30.26,ENE,61,3.0,4.0,94,0.00,,---,0.00,0.00,VWS V14.01,2013-05-06 08:01:00,
2013-05-06 04:06:00,44.6,43.0,30.26,ENE,65,5.0,6.0,94,0.00,,---,0.00,0.00,VWS V14.01,2013-05-06 08:06:00,
2013-05-06 04:11:00,44.6,42.7,30.25,NE,51,2.0,6.0,93,0.00,,---,0.00,0.00,VWS V14.01,2013-05-06 08:11:00,
2013-05-06 04:15:00,44.7,43.1,30.26,ESE,116,2.0,11.0,94,0.00,,,0.00,0.00,VWS V14.01,2013-05-06 08:15:00,
2013-05-06 04:16:00,44.6,42.7,30.25,NE,41,3.0,4.0,93,0.00,,---,0.00,0.00,VWS V14.01,2013-05-06 08:16:00,
2013-05-06 04:21:00,44.7,42.5,30.25,NE,49,3.0,4.0,92,0.00,,---,0.00,0.00,VWS V14.01,2013-05-06 08:21:00,
2013-05-06 04:26:00,44.9,42.7,30.25,North,11,1.0,5.0,92,0.00,,---,0.00,0.00,VWS V14.01,2013-05-06 08:26:00,
2013-05-06 04:30:00,44.8,43.2,30.26,East,79,3.0,5.0,94,0.00,,,0.00,0.00,VWS V14.01,2013-05-06 08:30:00,
2013-05-06 04:31:00,44.9,42.7,30.25,NE,40,2.0,4.0,92,0.00,,---,0.00,0.00,VWS V14.01,2013-05-06 08:31:00,
2013-05-06 04:36:00,44.9,42.7,30.25,NE,42,2.0,4.0,92,0.00,,---,0.00,0.00,VWS V14.01,2013-05-06 08:36:00,
2013-05-06 04:41:00,44.9,42.7,30.25,ENE,67,2.0,4.0,92,0.00,,---,0.00,0.00,VWS V14.01,2013-05-06 08:41:00,
2013-05-06 04:45:00,44.7,43.1,30.26,NE,49,2.0,6.0,94,0.00,,,0.00,0.00,VWS V14.01,2013-05-06 08:45:00,
2013-05-06 04:47:00,45.0,42.8,30.25,NE,51,3.0,3.0,92,0.00,,---,0.00,0.00,VWS V14.01,2013-05-06 08:47:00,
2013-05-06 04:52:00,45.1,42.9,30.25,ENE,64,2.0,4.0,92,0.00,,---,0.00,0.00,VWS V14.01,2013-05-06 08:52:00,
2013-05-06 04:57:00,45.1,42.9,30.26,ENE,58,4.0,5.0,92,0.00,,---,0.00,0.00,VWS V14.01,2013-05-06 08:57:00,
2013-05-06 05:00:00,44.7,43.1,30.26,ENE,61,4.0,7.0,94,0.00,,,0.00,0.00,VWS V14.01,2013-05-06 09:00:00,
2013-05-06 05:02:00,45.1,43.2,30.26,NE,34,3.0,6.0,93,0.00,,---,0.00,0.00,VWS V14.01,2013-05-06 09:02:00,
2013-05-06 05:07:00,45.0,43.1,30.26,ENE,66,2.0,6.0,93,0.00,,---,0.00,0.00,VWS V14.01,2013-05-06 09:07:00,
2013-05-06 05:12:00,45.0,43.1,30.26,NE,36,0.0,6.0,93,0.00,,---,0.00,0.00,VWS V14.01,2013-05-06 09:12:00,
2013-05-06 05:15:00,44.6,42.7,30.25,NNE,30,3.0,6.0,93,0.00,,,0.00,0.00,VWS V14.01,2013-05-06 09:15:00,
2013-05-06 05:17:00,44.9,43.0,30.26,NE,46,2.0,4.0,93,0.00,,---,0.00,0.00,VWS V14.01,2013-05-06 09:17:00,
2013-05-06 05:22:00,44.9,43.0,30.27,ENE,63,5.0,5.0,93,0.00,,---,0.00,0.00,VWS V14.01,2013-05-06 09:22:00,
2013-05-06 05:27:00,44.7,42.8,30.27,NE,46,2.0,9.0,93,0.00,,---,0.00,0.00,VWS V14.01,2013-05-06 09:27:00,
2013-05-06 05:30:00,44.9,42.7,30.25,NE,40,3.0,6.0,92,0.00,,,0.00,0.00,VWS V14.01,2013-05-06 09:30:00,
2013-05-06 05:32:00,44.6,42.7,30.27,NE,35,2.0,4.0,93,0.00,,---,0.00,0.00,VWS V14.01,2013-05-06 09:32:00,
2013-05-06 05:37:00,44.5,42.6,30.27,NNE,23,1.0,5.0,93,0.00,,---,0.00,0.00,VWS V14.01,2013-05-06 09:37:00,
2013-05-06 05:42:00,44.5,42.6,30.28,East,96,4.0,6.0,93,0.00,,---,0.00,0.00,VWS V14.01,2013-05-06 09:42:00,
2013-05-06 05:45:00,45.0,42.8,30.25,NNE,23,1.0,6.0,92,0.00,,,0.00,0.00,VWS V14.01,2013-05-06 09:45:00,
2013-05-06 05:47:00,44.5,42.9,30.28,NE,46,1.0,4.0,94,0.00,,---,0.00,5.00,VWS V14.01,2013-05-06 09:47:00,
2013-05-06 05:52:00,44.5,42.9,30.28,NNE,29,7.0,7.0,94,0.00,,---,0.00,5.00,VWS V14.01,2013-05-06 09:52:00,
2013-05-06 05:57:00,44.4,42.5,30.28,NE,42,2.0,7.0,93,0.00,,---,0.00,7.00,VWS V14.01,2013-05-06 09:57:00,
2013-05-06 06:00:00,45.1,43.2,30.26,NE,40,6.0,8.0,93,0.00,,,0.00,0.00,VWS V14.01,2013-05-06 10:00:00,
2013-05-06 06:02:00,44.5,42.9,30.29,ENE,57,0.0,1.0,94,0.00,,---,0.00,7.00,VWS V14.01,2013-05-06 10:02:00,
2013-05-06 06:07:00,44.5,42.9,30.29,ENE,63,4.0,7.0,94,0.00,,---,0.00,9.00,VWS V14.01,2013-05-06 10:07:00,
2013-05-06 06:12:00,44.5,42.9,30.29,ENE,66,6.0,10.0,94,0.00,,---,0.00,9.00,VWS V14.01,2013-05-06 10:12:00,
2013-05-06 06:15:00,44.9,43.0,30.26,ENE,67,3.0,6.0,93,0.00,,,0.00,0.00,VWS V14.01,2013-05-06 10:15:00,
2013-05-06 06:17:00,44.4,42.8,30.29,ENE,75,2.0,3.0,94,0.00,,---,0.00,12.00,VWS V14.01,2013-05-06 10:17:00,
2013-05-06 06:22:00,44.4,42.8,30.29,ENE,69,2.0,6.0,94,0.00,,---,0.00,18.00,VWS V14.01,2013-05-06 10:22:00,
2013-05-06 06:27:00,44.4,42.8,30.29,ENE,69,4.0,6.0,94,0.00,,---,0.00,21.00,VWS V14.01,2013-05-06 10:27:00,
2013-05-06 06:30:00,44.6,42.7,30.27,NE,48,4.0,9.0,93,0.00,,,0.00,0.00,VWS V14.01,2013-05-06 10:30:00,
2013-05-06 06:32:00,44.3,42.7,30.29,East,97,4.0,5.0,94,0.00,,---,0.00,21.00,VWS V14.01,2013-05-06 10:32:00,
2013-05-06 06:37:00,44.2,42.6,30.29,NE,46,4.0,6.0,94,0.00,,---,0.00,28.00,VWS V14.01,2013-05-06 10:37:00,
2013-05-06 06:42:00,44.2,42.6,30.29,NE,52,0.0,6.0,94,0.00,,---,0.00,42.00,VWS V14.01,2013-05-06 10:42:00,
2013-05-06 06:47:00,44.1,42.5,30.29,ENE,71,5.0,6.0,94,0.00,,---,0.00,47.00,VWS V14.01,2013-05-06 10:47:00,
2013-05-06 06:52:00,44.0,42.4,30.29,ENE,64,4.0,6.0,94,0.00,,---,0.00,42.00,VWS V14.01,2013-05-06 10:52:00,
2013-05-06 06:57:00,44.1,42.5,30.29,East,98,4.0,6.0,94,0.00,,---,0.00,44.00,VWS V14.01,2013-05-06 10:57:00,
2013-05-06 07:00:00,44.5,42.9,30.29,ENE,57,1.0,7.0,94,0.00,,,0.00,7.00,VWS V14.01,2013-05-06 11:00:00,
2013-05-06 07:02:00,44.2,42.6,30.29,ESE,117,1.0,1.0,94,0.00,,---,0.00,46.00,VWS V14.01,2013-05-06 11:02:00,
2013-05-06 07:07:00,44.4,42.8,30.30,ESE,118,5.0,8.0,94,0.00,,---,0.00,44.00,VWS V14.01,2013-05-06 11:07:00,
2013-05-06 07:12:00,44.5,42.9,30.30,East,82,4.0,8.0,94,0.00,,---,0.00,60.00,VWS V14.01,2013-05-06 11:12:00,
2013-05-06 07:15:00,44.4,42.8,30.29,ENE,75,3.0,10.0,94,0.00,,,0.00,12.00,VWS V14.01,2013-05-06 11:15:00,
2013-05-06 07:17:00,44.4,42.5,30.30,East,81,0.0,0.0,93,0.00,,---,0.00,54.00,VWS V14.01,2013-05-06 11:17:00,
2013-05-06 07:22:00,44.5,42.6,30.30,East,81,2.0,2.0,93,0.00,,---,0.00,62.00,VWS V14.01,2013-05-06 11:22:00,
2013-05-06 07:27:00,44.6,43.0,30.30,ENE,77,3.0,3.0,94,0.00,,---,0.00,77.00,VWS V14.01,2013-05-06 11:27:00,
2013-05-06 07:30:00,44.3,42.7,30.29,East,93,5.0,6.0,94,0.00,,,0.00,21.00,VWS V14.01,2013-05-06 11:30:00,
2013-05-06 07:32:00,44.6,42.7,30.30,East,86,2.0,4.0,93,0.00,,---,0.00,97.00,VWS V14.01,2013-05-06 11:32:00,
2013-05-06 07:37:00,44.7,42.8,30.30,ESE,106,6.0,7.0,93,0.00,,---,0.00,81.00,VWS V14.01,2013-05-06 11:37:00,
2013-05-06 07:42:00,44.9,43.0,30.30,East,86,6.0,8.0,93,0.00,,---,0.00,93.00,VWS V14.01,2013-05-06 11:42:00,
2013-05-06 07:45:00,44.2,42.6,30.29,ENE,71,4.0,6.0,94,0.00,,,0.00,51.00,VWS V14.01,2013-05-06 11:45:00,
2013-05-06 07:47:00,44.8,42.9,30.30,NE,56,3.0,4.0,93,0.00,,---,0.00,95.00,VWS V14.01,2013-05-06 11:47:00,
2013-05-06 07:52:00,44.9,43.0,30.30,ENE,71,0.0,5.0,93,0.00,,---,0.00,104.00,VWS V14.01,2013-05-06 11:52:00,
2013-05-06 07:57:00,45.0,43.1,30.30,NNE,16,0.0,5.0,93,0.00,,---,0.00,114.00,VWS V14.01,2013-05-06 11:57:00,
2013-05-06 08:00:00,44.2,42.6,30.29,ESE,117,0.0,6.0,94,0.00,,,0.00,42.00,VWS V14.01,2013-05-06 12:00:00,
2013-05-06 08:02:00,45.2,43.3,30.30,NE,51,6.0,10.0,93,0.00,,---,0.00,137.00,VWS V14.01,2013-05-06 12:02:00,
2013-05-06 08:07:00,45.3,43.4,30.30,NE,34,4.0,10.0,93,0.00,,---,0.00,171.00,VWS V14.01,2013-05-06 12:07:00,
2013-05-06 08:12:00,45.3,43.4,30.30,NNE,16,4.0,10.0,93,0.00,,---,0.00,169.00,VWS V14.01,2013-05-06 12:12:00,
2013-05-06 08:15:00,44.4,42.5,30.30,East,81,0.0,8.0,93,0.00,,,0.00,54.00,VWS V14.01,2013-05-06 12:15:00,
2013-05-06 08:17:00,45.4,43.5,30.30,NE,49,4.0,5.0,93,0.00,,---,0.00,186.00,VWS V14.01,2013-05-06 12:17:00,
2013-05-06 08:22:00,45.5,43.6,30.30,NE,38,7.0,7.0,93,0.00,,---,0.00,179.00,VWS V14.01,2013-05-06 12:22:00,
2013-05-06 08:27:00,45.6,43.7,30.29,NE,35,7.0,10.0,93,0.00,,---,0.00,206.00,VWS V14.01,2013-05-06 12:27:00,
2013-05-06 08:30:00,44.7,43.1,30.30,ENE,74,4.0,5.0,94,0.00,,,0.00,91.00,VWS V14.01,2013-05-06 12:30:00,
2013-05-06 08:32:00,45.8,43.9,30.28,NE,48,7.0,11.0,93,0.00,,---,0.00,276.00,VWS V14.01,2013-05-06 12:32:00,
2013-05-06 08:37:00,45.9,44.0,30.29,ENE,63,3.0,12.0,93,0.00,,---,0.00,241.00,VWS V14.01,2013-05-06 12:37:00,
2013-05-06 08:42:00,46.1,44.2,30.31,South,179,2.0,12.0,93,0.00,,---,0.00,174.00,VWS V14.01,2013-05-06 12:42:00,
2013-05-06 08:45:00,44.8,42.9,30.30,East,101,4.0,8.0,93,0.00,,,0.00,105.00,VWS V14.01,2013-05-06 12:45:00,
2013-05-06 08:47:00,46.3,44.4,30.30,SW,215,0.0,0.0,93,0.00,,---,0.00,169.00,VWS V14.01,2013-05-06 12:47:00,
2013-05-06 08:52:00,46.5,44.3,30.31,East,96,4.0,5.0,92,0.00,,---,0.00,162.00,VWS V14.01,2013-05-06 12:52:00,
2013-05-06 08:57:00,46.6,44.4,30.31,East,98,1.0,5.0,92,0.00,,---,0.00,186.00,VWS V14.01,2013-05-06 12:57:00,
2013-05-06 09:00:00,45.2,43.3,30.30,NE,55,5.0,7.0,93,0.00,,,0.00,128.00,VWS V14.01,2013-05-06 13:00:00,
2013-05-06 09:02:00,46.7,44.5,30.31,SE,142,0.0,2.0,92,0.00,,---,0.00,209.00,VWS V14.01,2013-05-06 13:02:00,
2013-05-06 09:07:00,46.8,44.6,30.31,East,86,2.0,4.0,92,0.00,,---,0.00,195.00,VWS V14.01,2013-05-06 13:07:00,
2013-05-06 09:12:00,46.7,44.2,30.31,NE,53,2.0,6.0,91,0.00,,---,0.00,197.00,VWS V14.01,2013-05-06 13:12:00,
2013-05-06 09:15:00,45.5,43.6,30.30,NE,38,5.0,10.0,93,0.00,,,0.00,190.00,VWS V14.01,2013-05-06 13:15:00,
2013-05-06 09:17:00,46.6,44.4,30.31,ENE,71,0.0,0.0,92,0.00,,---,0.00,218.00,VWS V14.01,2013-05-06 13:17:00,
2013-05-06 09:22:00,46.7,44.2,30.31,East,86,1.0,5.0,91,0.00,,---,0.00,230.00,VWS V14.01,2013-05-06 13:22:00,
2013-05-06 09:27:00,46.7,44.2,30.31,SE,126,4.0,5.0,91,0.00,,---,0.00,220.00,VWS V14.01,2013-05-06 13:27:00,
2013-05-06 09:30:00,45.8,43.9,30.29,NNE,23,10.0,10.0,93,0.00,,,0.00,265.00,VWS V14.01,2013-05-06 13:30:00,
2013-05-06 09:32:00,46.9,44.7,30.31,East,81,0.0,4.0,92,0.00,,---,0.00,213.00,VWS V14.01,2013-05-06 13:32:00,
2013-05-06 09:37:00,47.0,44.5,30.31,East,82,1.0,5.0,91,0.00,,---,0.00,230.00,VWS V14.01,2013-05-06 13:37:00,
2013-05-06 09:42:00,47.2,44.7,30.31,East,90,1.0,5.0,91,0.00,,---,0.00,278.00,VWS V14.01,2013-05-06 13:42:00,
2013-05-06 09:45:00,46.2,44.3,30.31,SW,215,0.0,12.0,93,0.00,,,0.00,162.00,VWS V14.01,2013-05-06 13:45:00,
2013-05-06 09:47:00,47.3,44.8,30.31,SE,139,2.0,5.0,91,0.00,,---,0.00,308.00,VWS V14.01,2013-05-06 13:47:00,
2013-05-06 09:52:00,47.6,45.4,30.31,SSE,157,5.0,6.0,92,0.00,,---,0.00,250.00,VWS V14.01,2013-05-06 13:52:00,
2013-05-06 09:57:00,48.1,45.6,30.31,SSE,150,6.0,6.0,91,0.00,,---,0.00,294.00,VWS V14.01,2013-05-06 13:57:00,
2013-05-06 10:00:00,46.7,44.5,30.31,SE,142,1.0,5.0,92,0.00,,,0.00,204.00,VWS V14.01,2013-05-06 14:00:00,
2013-05-06 10:02:00,48.5,46.0,30.31,SSE,150,2.0,5.0,91,0.00,,---,0.00,287.00,VWS V14.01,2013-05-06 14:02:00,
2013-05-06 10:07:00,48.7,45.9,30.31,SE,145,4.0,5.0,90,0.00,,,0.00,292.00,VWS V14.01,2013-05-06 14:07:00,
2013-05-06 10:12:00,48.8,45.7,30.31,SE,142,2.0,5.0,89,0.00,,,0.00,339.00,VWS V14.01,2013-05-06 14:12:00,
2013-05-06 10:15:00,46.6,44.1,30.31,ENE,71,0.0,6.0,91,0.00,,,0.00,220.00,VWS V14.01,2013-05-06 14:15:00,
2013-05-06 10:17:00,48.8,45.4,30.31,South,174,4.0,4.0,88,0.00,,,0.00,327.00,VWS V14.01,2013-05-06 14:17:00,
2013-05-06 10:22:00,48.3,45.2,30.31,SSW,213,0.0,4.0,89,0.00,,,0.00,338.00,VWS V14.01,2013-05-06 14:22:00,
2013-05-06 10:27:00,48.3,45.2,30.31,SSW,204,1.0,4.0,89,0.00,,,0.00,315.00,VWS V14.01,2013-05-06 14:27:00,
2013-05-06 10:30:00,46.9,44.7,30.31,ENE,67,3.0,5.0,92,0.00,,,0.00,234.00,VWS V14.01,2013-05-06 14:30:00,
2013-05-06 10:33:00,48.6,45.8,30.31,SE,128,2.0,5.0,90,0.00,,,0.00,355.00,VWS V14.01,2013-05-06 14:33:00,
2013-05-06 10:38:00,48.8,45.7,30.31,SW,217,1.0,5.0,89,0.00,,,0.00,373.00,VWS V14.01,2013-05-06 14:38:00,
2013-05-06 10:43:00,48.9,45.8,30.31,SSW,207,1.0,5.0,89,0.00,,,0.00,469.00,VWS V14.01,2013-05-06 14:43:00,
2013-05-06 10:45:00,47.2,44.7,30.31,SSE,155,4.0,5.0,91,0.00,,,0.00,313.00,VWS V14.01,2013-05-06 14:45:00,
2013-05-06 10:48:00,49.0,45.9,30.31,SW,215,3.0,4.0,89,0.00,,,0.00,684.00,VWS V14.01,2013-05-06 14:48:00,
2013-05-06 10:53:00,49.2,45.8,30.31,SW,226,3.0,5.0,88,0.00,,,0.00,668.00,VWS V14.01,2013-05-06 14:53:00,
2013-05-06 10:58:00,49.2,45.8,30.31,SW,236,4.0,5.0,88,0.00,,,0.00,657.00,VWS V14.01,2013-05-06 14:58:00,
2013-05-06 11:00:00,48.4,45.9,30.31,SE,145,5.0,6.0,91,0.00,,,0.00,290.00,VWS V14.01,2013-05-06 15:00:00,
2013-05-06 11:03:00,49.3,45.9,30.31,SSW,213,2.0,5.0,88,0.00,,,0.00,650.00,VWS V14.01,2013-05-06 15:03:00,
2013-05-06 11:08:00,48.9,45.5,30.30,SW,229,2.0,5.0,88,0.00,,,0.00,803.00,VWS V14.01,2013-05-06 15:08:00,
2013-05-06 11:13:00,49.0,45.9,30.30,SSW,205,1.0,5.0,89,0.00,,,0.00,951.00,VWS V14.01,2013-05-06 15:13:00,
2013-05-06 11:15:00,48.9,45.5,30.31,South,176,4.0,5.0,88,0.00,,,0.00,334.00,VWS V14.01,2013-05-06 15:15:00,
2013-05-06 11:18:00,49.4,46.0,30.30,SSW,205,3.0,4.0,88,0.00,,,0.00,940.00,VWS V14.01,2013-05-06 15:18:00,
2013-05-06 11:23:00,49.4,46.0,30.30,SE,136,5.0,6.0,88,0.00,,,0.00,940.00,VWS V14.01,2013-05-06 15:23:00,
2013-05-06 11:28:00,50.0,46.9,30.30,SE,138,5.0,6.0,89,0.00,,,0.00,944.00,VWS V14.01,2013-05-06 15:28:00,
2013-05-06 11:30:00,48.5,45.7,30.31,SE,133,4.0,5.0,90,0.00,,,0.00,322.00,VWS V14.01,2013-05-06 15:30:00,
2013-05-06 11:33:00,51.3,47.9,30.30,SSE,153,4.0,7.0,88,0.00,,,0.00,947.00,VWS V14.01,2013-05-06 15:33:00,
2013-05-06 11:38:00,52.1,47.7,30.29,SE,140,2.0,7.0,85,0.00,,,0.00,954.00,VWS V14.01,2013-05-06 15:38:00,
2013-05-06 11:43:00,52.4,47.4,30.29,SSE,153,4.0,7.0,83,0.00,,,0.00,958.00,VWS V14.01,2013-05-06 15:43:00,
2013-05-06 11:45:00,49.0,45.9,30.31,South,176,4.0,5.0,89,0.00,,,0.00,503.00,VWS V14.01,2013-05-06 15:45:00,
2013-05-06 11:48:00,52.3,47.0,30.29,SE,143,4.0,6.0,82,0.00,,,0.00,962.00,VWS V14.01,2013-05-06 15:48:00,
2013-05-06 11:53:00,52.6,47.9,30.28,SE,130,6.0,7.0,84,0.00,,,0.00,875.00,VWS V14.01,2013-05-06 15:53:00,
2013-05-06 11:58:00,52.9,47.6,30.28,ESE,105,4.0,8.0,82,0.00,,,0.00,492.00,VWS V14.01,2013-05-06 15:58:00,
2013-05-06 12:00:00,49.3,45.9,30.31,SW,236,5.0,5.0,88,0.00,,,0.00,647.00,VWS V14.01,2013-05-06 16:00:00,
2013-05-06 12:03:00,53.1,47.8,30.28,SE,132,4.0,6.0,82,0.00,,,0.00,969.00,VWS V14.01,2013-05-06 16:03:00,
2013-05-06 12:08:00,53.6,48.2,30.28,SE,128,1.0,6.0,82,0.00,,,0.00,970.00,VWS V14.01,2013-05-06 16:08:00,
2013-05-06 12:13:00,54.2,48.5,30.28,SE,140,5.0,6.0,81,0.00,,,0.00,974.00,VWS V14.01,2013-05-06 16:13:00,
2013-05-06 12:15:00,49.3,46.2,30.30,SSW,202,4.0,5.0,89,0.00,,,0.00,937.00,VWS V14.01,2013-05-06 16:15:00,
2013-05-06 12:18:00,54.9,49.2,30.28,SE,144,4.0,6.0,81,0.00,,,0.00,974.00,VWS V14.01,2013-05-06 16:18:00,
2013-05-06 12:23:00,55.5,49.4,30.28,SE,139,5.0,7.0,80,0.00,,,0.00,979.00,VWS V14.01,2013-05-06 16:23:00,
2013-05-06 12:28:00,55.9,49.2,30.27,SE,136,5.0,7.0,78,0.00,,,0.00,1027.00,VWS V14.01,2013-05-06 16:28:00,
2013-05-06 12:30:00,50.9,47.5,30.30,SE,146,2.0,7.0,88,0.00,,,0.00,947.00,VWS V14.01,2013-05-06 16:30:00,
2013-05-06 12:33:00,55.9,49.2,30.27,SE,130,5.0,7.0,78,0.00,,,0.00,867.00,VWS V14.01,2013-05-06 16:33:00,
2013-05-06 12:38:00,55.9,49.2,30.27,SE,125,7.0,7.0,78,0.00,,,0.00,990.00,VWS V14.01,2013-05-06 16:38:00,
2013-05-06 12:43:00,55.7,48.6,30.27,ESE,123,5.0,8.0,77,0.00,,,0.00,976.00,VWS V14.01,2013-05-06 16:43:00,
2013-05-06 12:45:00,52.4,47.4,30.29,SE,135,4.0,7.0,83,0.00,,,0.00,960.00,VWS V14.01,2013-05-06 16:45:00,
2013-05-06 12:48:00,55.4,48.3,30.27,ESE,122,7.0,8.0,77,0.00,,,0.00,974.00,VWS V14.01,2013-05-06 16:48:00,
2013-05-06 12:53:00,55.1,48.4,30.26,ESE,118,6.0,9.0,78,0.00,,,0.00,969.00,VWS V14.01,2013-05-06 16:53:00,
2013-05-06 12:58:00,54.7,48.7,30.26,SE,130,5.0,9.0,80,0.00,,,0.00,967.00,VWS V14.01,2013-05-06 16:58:00,
2013-05-06 13:00:00,53.0,47.7,30.28,SE,128,2.0,8.0,82,0.00,,,0.00,962.00,VWS V14.01,2013-05-06 17:00:00,
2013-05-06 13:03:00,55.0,49.3,30.26,SE,131,4.0,6.0,81,0.00,,,0.00,965.00,VWS V14.01,2013-05-06 17:03:00,
2013-05-06 13:08:00,55.2,49.2,30.26,ESE,107,5.0,6.0,80,0.00,,,0.00,963.00,VWS V14.01,2013-05-06 17:08:00,
2013-05-06 13:13:00,55.5,49.1,30.25,ESE,115,5.0,7.0,79,0.00,,,0.00,965.00,VWS V14.01,2013-05-06 17:13:00,
2013-05-06 13:15:00,54.6,48.9,30.28,SSE,149,2.0,7.0,81,0.00,,,0.00,974.00,VWS V14.01,2013-05-06 17:15:00,
2013-05-06 13:18:00,55.4,49.0,30.25,SE,131,6.0,8.0,79,0.00,,,0.00,962.00,VWS V14.01,2013-05-06 17:18:00,
2013-05-06 13:23:00,55.3,48.9,30.25,ESE,103,6.0,8.0,79,0.00,,,0.00,956.00,VWS V14.01,2013-05-06 17:23:00,
2013-05-06 13:28:00,55.2,49.2,30.25,ESE,112,6.0,8.0,80,0.00,,,0.00,949.00,VWS V14.01,2013-05-06 17:28:00,
2013-05-06 13:30:00,55.9,48.8,30.27,SE,140,4.0,7.0,77,0.00,,,0.00,867.00,VWS V14.01,2013-05-06 17:30:00,
2013-05-06 13:33:00,55.9,50.2,30.25,SE,126,6.0,7.0,81,0.00,,,0.00,940.00,VWS V14.01,2013-05-06 17:33:00,
2013-05-06 13:38:00,56.7,50.3,30.24,SE,137,4.0,8.0,79,0.00,,,0.00,939.00,VWS V14.01,2013-05-06 17:38:00,
2013-05-06 13:43:00,57.5,50.7,30.25,SE,128,9.0,9.0,78,0.00,,,0.00,935.00,VWS V14.01,2013-05-06 17:43:00,
2013-05-06 13:45:00,55.5,48.4,30.27,SE,130,6.0,8.0,77,0.00,,,0.00,976.00,VWS V14.01,2013-05-06 17:45:00,
2013-05-06 13:48:00,57.8,50.7,30.25,SE,130,8.0,8.0,77,0.00,,,0.00,930.00,VWS V14.01,2013-05-06 17:48:00,
2013-05-06 13:53:00,57.7,50.2,30.25,ESE,123,8.0,8.0,76,0.00,,,0.00,921.00,VWS V14.01,2013-05-06 17:53:00,
2013-05-06 13:58:00,57.6,50.8,30.25,ESE,117,8.0,9.0,78,0.00,,,0.00,916.00,VWS V14.01,2013-05-06 17:58:00,
2013-05-06 14:00:00,54.8,48.8,30.26,SE,129,5.0,9.0,80,0.00,,,0.00,967.00,VWS V14.01,2013-05-06 18:00:00,
2013-05-06 14:03:00,57.7,50.5,30.25,SE,126,8.0,8.0,77,0.00,,,0.00,911.00,VWS V14.01,2013-05-06 18:03:00,
2013-05-06 14:08:00,58.0,51.5,30.25,ESE,120,7.0,9.0,79,0.00,,,0.00,902.00,VWS V14.01,2013-05-06 18:08:00,
2013-05-06 14:13:00,58.3,51.1,30.25,ESE,115,8.0,9.0,77,0.00,,,0.00,893.00,VWS V14.01,2013-05-06 18:13:00,
2013-05-06 14:15:00,55.5,49.4,30.26,SE,125,8.0,8.0,80,0.00,,,0.00,963.00,VWS V14.01,2013-05-06 18:15:00,
2013-05-06 14:18:00,58.3,51.5,30.24,ESE,111,6.0,8.0,78,0.00,,,0.00,888.00,VWS V14.01,2013-05-06 18:18:00,
2013-05-06 14:23:00,58.6,52.1,30.24,ESE,120,9.0,11.0,79,0.00,,,0.00,881.00,VWS V14.01,2013-05-06 18:23:00,
2013-05-06 14:28:00,58.0,51.2,30.24,East,97,11.0,14.0,78,0.00,,,0.00,870.00,VWS V14.01,2013-05-06 18:28:00,
2013-05-06 14:30:00,55.5,49.1,30.25,SE,144,6.0,8.0,79,0.00,,,0.00,944.00,VWS V14.01,2013-05-06 18:30:00,
2013-05-06 14:33:00,57.5,51.4,30.24,ESE,108,13.0,13.0,80,0.00,,,0.00,861.00,VWS V14.01,2013-05-06 18:33:00,
2013-05-06 14:38:00,57.2,51.1,30.23,ESE,113,9.0,14.0,80,0.00,,,0.00,854.00,VWS V14.01,2013-05-06 18:38:00,
2013-05-06 14:43:00,57.3,51.2,30.23,ESE,113,6.0,14.0,80,0.00,,,0.00,842.00,VWS V14.01,2013-05-06 18:43:00,
2013-05-06 14:45:00,57.7,50.5,30.24,SE,125,6.0,9.0,77,0.00,,,0.00,930.00,VWS V14.01,2013-05-06 18:45:00,
2013-05-06 14:48:00,57.5,51.7,30.23,ESE,105,12.0,13.0,81,0.00,,,0.00,833.00,VWS V14.01,2013-05-06 18:48:00,
2013-05-06 14:53:00,57.4,51.3,30.23,ESE,109,12.0,13.0,80,0.00,,,0.00,821.00,VWS V14.01,2013-05-06 18:53:00,
2013-05-06 14:58:00,57.0,51.2,30.22,ESE,108,11.0,13.0,81,0.00,,,0.00,810.00,VWS V14.01,2013-05-06 18:58:00,
2013-05-06 15:00:00,57.7,50.9,30.25,SE,124,7.0,9.0,78,0.00,,,0.00,912.00,VWS V14.01,2013-05-06 19:00:00,
2013-05-06 15:03:00,56.7,51.3,30.22,SE,133,8.0,13.0,82,0.00,,,0.00,800.00,VWS V14.01,2013-05-06 19:03:00,
2013-05-06 15:08:00,56.8,51.4,30.22,ESE,119,11.0,14.0,82,0.00,,,0.00,789.00,VWS V14.01,2013-05-06 19:08:00,
2013-05-06 15:13:00,56.5,51.4,30.22,ESE,115,12.0,14.0,83,0.00,,,0.00,779.00,VWS V14.01,2013-05-06 19:13:00,
2013-05-06 15:15:00,58.3,51.5,30.24,ESE,102,7.0,9.0,78,0.00,,,0.00,891.00,VWS V14.01,2013-05-06 19:15:00,
2013-05-06 15:18:00,56.3,50.9,30.22,ESE,115,7.0,12.0,82,0.00,,,0.00,766.00,VWS V14.01,2013-05-06 19:18:00,
2013-05-06 15:23:00,56.4,51.3,30.21,East,100,7.0,12.0,83,0.00,,,0.00,752.00,VWS V14.01,2013-05-06 19:23:00,
2013-05-06 15:28:00,56.6,51.2,30.21,East,92,12.0,12.0,82,0.00,,,0.00,742.00,VWS V14.01,2013-05-06 19:28:00,
2013-05-06 15:30:00,57.6,51.1,30.24,ESE,116,12.0,14.0,79,0.00,,,0.00,865.00,VWS V14.01,2013-05-06 19:30:00,
2013-05-06 15:33:00,56.9,51.1,30.21,ESE,111,12.0,13.0,81,0.00,,,0.00,729.00,VWS V14.01,2013-05-06 19:33:00,
2013-05-06 15:38:00,56.9,51.5,30.21,SE,125,12.0,13.0,82,0.00,,,0.00,717.00,VWS V14.01,2013-05-06 19:38:00,
2013-05-06 15:43:00,56.8,51.0,30.21,ESE,112,9.0,13.0,81,0.00,,,0.00,703.00,VWS V14.01,2013-05-06 19:43:00,
2013-05-06 15:45:00,57.4,51.6,30.23,ESE,107,11.0,14.0,81,0.00,,,0.00,837.00,VWS V14.01,2013-05-06 19:45:00,
2013-05-06 15:48:00,56.3,50.9,30.21,East,100,7.0,11.0,82,0.00,,,0.00,680.00,VWS V14.01,2013-05-06 19:48:00,
2013-05-06 15:53:00,56.0,50.6,30.21,ESE,102,7.0,11.0,82,0.00,,,0.00,642.00,VWS V14.01,2013-05-06 19:53:00,
2013-05-06 15:58:00,56.0,50.9,30.21,ESE,116,7.0,11.0,83,0.00,,,0.00,587.00,VWS V14.01,2013-05-06 19:58:00,
2013-05-06 16:00:00,56.8,51.4,30.22,ESE,108,12.0,13.0,82,0.00,,,0.00,805.00,VWS V14.01,2013-05-06 20:00:00,
2013-05-06 16:03:00,56.0,50.9,30.21,ESE,113,9.0,11.0,83,0.00,,,0.00,531.00,VWS V14.01,2013-05-06 20:03:00,
2013-05-06 16:08:00,56.1,51.0,30.20,ESE,111,9.0,11.0,83,0.00,,,0.00,478.00,VWS V14.01,2013-05-06 20:08:00,
2013-05-06 16:13:00,56.2,50.8,30.20,ESE,102,8.0,12.0,82,0.00,,,0.00,396.00,VWS V14.01,2013-05-06 20:13:00,
2013-05-06 16:15:00,56.5,51.4,30.22,ESE,109,11.0,14.0,83,0.00,,,0.00,772.00,VWS V14.01,2013-05-06 20:15:00,
2013-05-06 16:18:00,55.9,50.8,30.20,ESE,111,11.0,12.0,83,0.00,,,0.00,343.00,VWS V14.01,2013-05-06 20:18:00,
2013-05-06 16:23:00,55.8,50.7,30.20,East,98,8.0,12.0,83,0.00,,,0.00,357.00,VWS V14.01,2013-05-06 20:23:00,
2013-05-06 16:28:00,55.9,50.8,30.20,ESE,107,9.0,13.0,83,0.00,,,0.00,417.00,VWS V14.01,2013-05-06 20:28:00,
2013-05-06 16:33:00,55.8,50.7,30.20,ESE,115,12.0,12.0,83,0.00,,,0.00,466.00,VWS V14.01,2013-05-06 20:33:00,
2013-05-06 16:38:00,55.6,50.5,30.20,ESE,112,15.0,15.0,83,0.00,,,0.00,492.00,VWS V14.01,2013-05-06 20:38:00,
2013-05-06 16:43:00,55.2,50.1,30.20,ESE,117,14.0,15.0,83,0.00,,,0.00,510.00,VWS V14.01,2013-05-06 20:43:00,
2013-05-06 16:45:00,56.5,50.8,30.21,ESE,111,11.0,13.0,81,0.00,,,0.00,693.00,VWS V14.01,2013-05-06 20:45:00,
2013-05-06 16:48:00,54.9,50.2,30.20,ESE,108,12.0,14.0,84,0.00,,,0.00,506.00,VWS V14.01,2013-05-06 20:48:00,
2013-05-06 16:53:00,54.4,49.7,30.20,ESE,107,9.0,14.0,84,0.00,,,0.00,482.00,VWS V14.01,2013-05-06 20:53:00,
2013-05-06 16:58:00,54.0,49.6,30.20,East,94,8.0,14.0,85,0.00,,,0.00,454.00,VWS V14.01,2013-05-06 20:58:00,
2013-05-06 17:00:00,55.9,50.8,30.20,ESE,102,7.0,11.0,83,0.00,,,0.00,557.00,VWS V14.01,2013-05-06 21:00:00,
2013-05-06 17:03:00,53.7,49.6,30.19,East,95,8.0,12.0,86,0.00,,,0.00,429.00,VWS V14.01,2013-05-06 21:03:00,
2013-05-06 17:09:00,54.1,50.0,30.20,ESE,113,7.0,13.0,86,0.00,,,0.00,406.00,VWS V14.01,2013-05-06 21:09:00,
2013-05-06 17:14:00,54.3,49.9,30.19,ESE,115,12.0,13.0,85,0.00,,,0.00,392.00,VWS V14.01,2013-05-06 21:14:00,
2013-05-06 17:15:00,56.0,50.6,30.20,ESE,107,11.0,12.0,82,0.00,,,0.00,362.00,VWS V14.01,2013-05-06 21:15:00,
2013-05-06 17:19:00,54.3,49.9,30.19,ESE,112,8.0,11.0,85,0.00,,,0.00,394.00,VWS V14.01,2013-05-06 21:19:00,
2013-05-06 17:24:00,54.4,50.3,30.19,SE,132,9.0,12.0,86,0.00,,,0.00,392.00,VWS V14.01,2013-05-06 21:24:00,
2013-05-06 17:29:00,54.6,50.2,30.19,ESE,115,11.0,12.0,85,0.00,,,0.00,366.00,VWS V14.01,2013-05-06 21:29:00,
2013-05-06 17:30:00,55.8,50.4,30.20,ESE,107,9.0,13.0,82,0.00,,,0.00,446.00,VWS V14.01,2013-05-06 21:30:00,
2013-05-06 17:34:00,54.6,49.9,30.19,ESE,112,9.0,12.0,84,0.00,,,0.00,234.00,VWS V14.01,2013-05-06 21:34:00,
2013-05-06 17:39:00,54.6,50.2,30.18,ESE,111,11.0,12.0,85,0.00,,,0.00,79.00,VWS V14.01,2013-05-06 21:39:00,
2013-05-06 17:44:00,54.6,50.5,30.19,ESE,106,9.0,14.0,86,0.00,,,0.00,44.00,VWS V14.01,2013-05-06 21:44:00,
2013-05-06 17:45:00,55.0,50.3,30.20,ESE,109,9.0,15.0,84,0.00,,,0.00,513.00,VWS V14.01,2013-05-06 21:45:00,
2013-05-06 17:49:00,53.8,49.7,30.19,ESE,105,7.0,12.0,86,0.00,,,0.00,44.00,VWS V14.01,2013-05-06 21:49:00,
2013-05-06 17:54:00,53.0,49.5,30.19,ESE,111,11.0,12.0,88,0.00,,,0.00,42.00,VWS V14.01,2013-05-06 21:54:00,
2013-05-06 17:59:00,52.7,49.5,30.19,ESE,111,8.0,12.0,89,0.00,,,0.00,42.00,VWS V14.01,2013-05-06 21:59:00,
2013-05-06 18:00:00,53.8,49.4,30.19,ESE,105,11.0,14.0,85,0.00,,,0.00,445.00,VWS V14.01,2013-05-06 22:00:00,
2013-05-06 18:04:00,52.9,49.8,30.18,ESE,112,12.0,12.0,89,0.00,,,0.00,40.00,VWS V14.01,2013-05-06 22:04:00,
2013-05-06 18:09:00,53.0,49.8,30.18,ESE,103,11.0,13.0,89,0.00,,,0.00,40.00,VWS V14.01,2013-05-06 22:09:00,
2013-05-06 18:14:00,52.9,49.8,30.18,ESE,121,12.0,13.0,89,0.00,,,0.00,40.00,VWS V14.01,2013-05-06 22:14:00,
2013-05-06 18:15:00,54.3,49.9,30.20,ESE,114,9.0,13.0,85,0.00,,,0.00,392.00,VWS V14.01,2013-05-06 22:15:00,
2013-05-06 18:19:00,53.0,49.8,30.18,East,99,9.0,11.0,89,0.00,,,0.00,39.00,VWS V14.01,2013-05-06 22:19:00,
2013-05-06 18:24:00,52.8,49.7,30.18,ESE,107,8.0,11.0,89,0.00,,,0.00,37.00,VWS V14.01,2013-05-06 22:24:00,
2013-05-06 18:29:00,52.8,49.7,30.17,ESE,123,7.0,11.0,89,0.00,,,0.00,35.00,VWS V14.01,2013-05-06 22:29:00,
2013-05-06 18:30:00,54.7,50.3,30.19,ESE,114,9.0,12.0,85,0.00,,,0.00,315.00,VWS V14.01,2013-05-06 22:30:00,
2013-05-06 18:34:00,53.1,50.0,30.17,ESE,109,9.0,12.0,89,0.00,,,0.00,33.00,VWS V14.01,2013-05-06 22:34:00,
2013-05-06 18:39:00,53.1,49.7,30.17,ESE,107,6.0,13.0,88,0.00,,,0.00,33.00,VWS V14.01,2013-05-06 22:39:00,
2013-05-06 18:43:00,53.0,49.8,30.17,East,97,7.0,13.0,89,0.00,,,0.00,32.00,VWS V14.01,2013-05-06 22:43:00,
2013-05-06 18:45:00,54.2,49.8,30.19,ESE,111,12.0,14.0,85,0.00,,,0.00,44.00,VWS V14.01,2013-05-06 22:45:00,
2013-05-06 18:49:00,52.8,49.7,30.17,East,101,7.0,11.0,89,0.00,,,0.00,32.00,VWS V14.01,2013-05-06 22:49:00,
2013-05-06 18:54:00,52.3,49.2,30.17,East,88,6.0,11.0,89,0.00,,,0.00,30.00,VWS V14.01,2013-05-06 22:54:00,
2013-05-06 18:58:00,52.1,49.3,30.17,ESE,103,8.0,11.0,90,0.00,,,0.00,28.00,VWS V14.01,2013-05-06 22:58:00,
2013-05-06 19:00:00,52.7,49.6,30.18,ESE,109,7.0,12.0,89,0.00,,,0.00,40.00,VWS V14.01,2013-05-06 23:00:00,
2013-05-06 19:03:00,52.1,49.3,30.17,East,92,7.0,11.0,90,0.00,,,0.00,26.00,VWS V14.01,2013-05-06 23:03:00,
2013-05-06 19:08:00,51.9,49.4,30.17,East,98,8.0,11.0,91,0.00,,,0.00,25.00,VWS V14.01,2013-05-06 23:08:00,
2013-05-06 19:14:00,51.7,49.2,30.17,East,100,8.0,11.0,91,0.00,,,0.00,21.00,VWS V14.01,2013-05-06 23:14:00,
2013-05-06 19:15:00,53.0,49.8,30.18,ESE,107,5.0,13.0,89,0.00,,,0.00,39.00,VWS V14.01,2013-05-06 23:15:00,
2013-05-06 19:19:00,51.7,49.2,30.17,East,101,5.0,7.0,91,0.00,,,0.00,19.00,VWS V14.01,2013-05-06 23:19:00,
2013-05-06 19:24:00,51.6,49.1,30.17,East,92,7.0,7.0,91,0.00,,,0.00,18.00,VWS V14.01,2013-05-06 23:24:00,
2013-05-06 19:29:00,51.5,49.3,30.18,ESE,109,8.0,9.0,92,0.00,,,0.00,14.00,VWS V14.01,2013-05-06 23:29:00,
2013-05-06 19:30:00,53.0,49.8,30.17,ESE,112,5.0,11.0,89,0.00,,,0.00,35.00,VWS V14.01,2013-05-06 23:30:00,
2013-05-06 19:34:00,51.4,49.2,30.18,East,94,7.0,9.0,92,0.00,,,0.00,12.00,VWS V14.01,2013-05-06 23:34:00,
2013-05-06 19:39:00,51.2,49.0,30.18,ENE,78,5.0,9.0,92,0.00,,,0.00,9.00,VWS V14.01,2013-05-06 23:39:00,
2013-05-06 19:44:00,51.1,48.9,30.18,ESE,103,8.0,11.0,92,0.00,,,0.00,7.00,VWS V14.01,2013-05-06 23:44:00,
2013-05-06 19:45:00,52.8,49.3,30.17,SE,127,8.0,13.0,88,0.00,,,0.00,32.00,VWS V14.01,2013-05-06 23:45:00,
2013-05-06 19:49:00,51.0,48.8,30.18,ESE,105,6.0,8.0,92,0.00,,,0.00,5.00,VWS V14.01,2013-05-06 23:49:00,
2013-05-06 19:54:00,51.0,48.8,30.18,ESE,111,12.0,12.0,92,0.00,,,0.00,0.00,VWS V14.01,2013-05-06 23:54:00,
2013-05-06 19:59:00,50.9,48.7,30.18,East,94,9.0,12.0,92,0.00,,,0.00,0.00,VWS V14.01,2013-05-06 23:59:00,
2013-05-06 20:00:00,52.1,49.3,30.17,ESE,115,8.0,11.0,90,0.00,,,0.00,26.00,VWS V14.01,2013-05-07 00:00:00,
2013-05-06 20:04:00,50.6,48.7,30.18,East,96,9.0,11.0,93,0.00,,,0.00,0.00,VWS V14.01,2013-05-07 00:04:00,
2013-05-06 20:09:00,50.5,48.6,30.18,East,98,13.0,13.0,93,0.00,,,0.00,0.00,VWS V14.01,2013-05-07 00:09:00,
2013-05-06 20:14:00,50.4,48.5,30.19,East,92,11.0,13.0,93,0.00,,,0.00,0.00,VWS V14.01,2013-05-07 00:14:00,
2013-05-06 20:15:00,51.7,49.2,30.17,East,96,5.0,11.0,91,0.00,,,0.00,21.00,VWS V14.01,2013-05-07 00:15:00,
2013-05-06 20:19:00,50.3,48.4,30.19,East,88,6.0,11.0,93,0.00,,,0.00,0.00,VWS V14.01,2013-05-07 00:19:00,
2013-05-06 20:24:00,50.0,48.1,30.19,ENE,74,5.0,12.0,93,0.00,,,0.00,0.00,VWS V14.01,2013-05-07 00:24:00,
2013-05-06 20:29:00,49.8,48.2,30.20,East,99,15.0,15.0,94,0.00,,,0.00,0.00,VWS V14.01,2013-05-07 00:29:00,
2013-05-06 20:30:00,51.5,49.3,30.18,East,87,5.0,9.0,92,0.00,,,0.00,12.00,VWS V14.01,2013-05-07 00:30:00,
2013-05-06 20:34:00,49.5,47.8,30.20,East,96,13.0,15.0,94,0.00,,,0.00,0.00,VWS V14.01,2013-05-07 00:34:00,
2013-05-06 20:39:00,49.2,47.5,30.20,East,99,13.0,15.0,94,0.00,,,0.00,0.00,VWS V14.01,2013-05-07 00:39:00,
2013-05-06 20:44:00,49.1,47.7,30.20,East,84,8.0,15.0,95,0.00,,,0.00,0.00,VWS V14.01,2013-05-07 00:44:00,
2013-05-06 20:45:00,51.1,48.9,30.18,East,99,6.0,11.0,92,0.00,,,0.00,5.00,VWS V14.01,2013-05-07 00:45:00,
2013-05-06 20:49:00,49.0,47.6,30.20,East,101,13.0,14.0,95,0.00,,,0.00,0.00,VWS V14.01,2013-05-07 00:49:00,
2013-05-06 20:54:00,49.0,47.6,30.21,East,82,7.0,14.0,95,0.00,,,0.00,0.00,VWS V14.01,2013-05-07 00:54:00,
2013-05-06 20:59:00,49.1,48.0,30.21,East,81,8.0,14.0,96,0.00,,,0.00,0.00,VWS V14.01,2013-05-07 00:59:00,
2013-05-06 21:00:00,50.7,48.5,30.18,East,92,6.0,12.0,92,0.00,,,0.00,0.00,VWS V14.01,2013-05-07 01:00:00,
2013-05-06 21:04:00,49.1,48.0,30.21,ESE,103,11.0,12.0,96,0.00,,,0.00,0.00,VWS V14.01,2013-05-07 01:04:00,
2013-05-06 21:09:00,49.2,48.1,30.21,ESE,117,11.0,12.0,96,0.00,,,0.00,0.00,VWS V14.01,2013-05-07 01:09:00,
2013-05-06 21:14:00,49.0,47.9,30.21,East,93,7.0,13.0,96,0.00,,,0.00,0.00,VWS V14.01,2013-05-07 01:14:00,
2013-05-06 21:15:00,50.3,48.4,30.19,East,87,6.0,13.0,93,0.00,,,0.00,0.00,VWS V14.01,2013-05-07 01:15:00,
2013-05-06 21:19:00,49.1,48.0,30.21,East,100,6.0,11.0,96,0.00,,,0.00,0.00,VWS V14.01,2013-05-07 01:19:00,
2013-05-06 21:24:00,49.0,47.9,30.21,East,94,5.0,11.0,96,0.00,,,0.00,0.00,VWS V14.01,2013-05-07 01:24:00,
2013-05-06 21:29:00,49.1,48.0,30.21,East,95,7.0,11.0,96,0.00,,,0.00,0.00,VWS V14.01,2013-05-07 01:29:00,
2013-05-06 21:30:00,49.7,48.0,30.20,East,82,12.0,15.0,94,0.00,,,0.00,0.00,VWS V14.01,2013-05-07 01:30:00,
2013-05-06 21:34:00,49.0,47.9,30.21,ESE,103,9.0,12.0,96,0.00,,,0.00,0.00,VWS V14.01,2013-05-07 01:34:00,
2013-05-06 21:39:00,48.9,47.8,30.21,East,90,5.0,12.0,96,0.00,,,0.00,0.00,VWS V14.01,2013-05-07 01:39:00,
2013-05-06 21:44:00,48.8,47.7,30.21,ESE,107,9.0,12.0,96,0.00,,,0.00,0.00,VWS V14.01,2013-05-07 01:44:00,
2013-05-06 21:45:00,49.0,47.6,30.20,East,92,11.0,15.0,95,0.00,,,0.00,0.00,VWS V14.01,2013-05-07 01:45:00,
2013-05-06 21:49:00,48.8,47.7,30.21,East,97,7.0,8.0,96,0.00,,,0.00,0.00,VWS V14.01,2013-05-07 01:49:00,
2013-05-06 21:54:00,48.8,47.7,30.22,East,83,5.0,8.0,96,0.00,,,0.00,0.00,VWS V14.01,2013-05-07 01:54:00,
2013-05-06 21:59:00,48.8,47.7,30.22,ESE,109,6.0,8.0,96,0.00,,,0.00,0.00,VWS V14.01,2013-05-07 01:59:00,
2013-05-06 22:04:00,48.8,47.7,30.22,ESE,113,7.0,7.0,96,0.00,,,0.00,0.00,VWS V14.01,2013-05-07 02:04:00,
2013-05-06 22:09:00,48.8,47.7,30.21,ESE,103,6.0,7.0,96,0.00,,,0.00,0.00,VWS V14.01,2013-05-07 02:09:00,
2013-05-06 22:14:00,48.8,47.7,30.22,ESE,117,5.0,7.0,96,0.00,,,0.00,0.00,VWS V14.01,2013-05-07 02:14:00,
2013-05-06 22:15:00,49.0,47.9,30.21,ESE,104,6.0,13.0,96,0.00,,,0.00,0.00,VWS V14.01,2013-05-07 02:15:00,
2013-05-06 22:19:00,48.9,47.8,30.22,SE,143,5.0,7.0,96,0.00,,,0.00,0.00,VWS V14.01,2013-05-07 02:19:00,
2013-05-06 22:24:00,49.0,48.2,30.21,SSE,151,0.0,7.0,97,0.00,,,0.00,0.00,VWS V14.01,2013-05-07 02:24:00,
2013-05-06 22:29:00,49.0,47.9,30.21,SSE,151,0.0,7.0,96,0.00,,,0.00,0.00,VWS V14.01,2013-05-07 02:29:00,
2013-05-06 22:30:00,48.9,47.8,30.21,East,92,6.0,11.0,96,0.00,,,0.00,0.00,VWS V14.01,2013-05-07 02:30:00,
2013-05-06 22:34:00,49.1,48.0,30.21,SSE,151,0.0,0.0,96,0.00,,,0.00,0.00,VWS V14.01,2013-05-07 02:34:00,
2013-05-06 22:39:00,49.1,48.0,30.21,SE,140,2.0,3.0,96,0.00,,,0.00,0.00,VWS V14.01,2013-05-07 02:39:00,
2013-05-06 22:44:00,49.3,48.5,30.21,SE,133,4.0,5.0,97,0.00,,,0.00,0.00,VWS V14.01,2013-05-07 02:44:00,
2013-05-06 22:45:00,48.8,47.7,30.21,ESE,111,8.0,12.0,96,0.00,,,0.00,0.00,VWS V14.01,2013-05-07 02:45:00,
2013-05-06 22:49:00,49.3,48.5,30.21,SE,145,0.0,6.0,97,0.00,,,0.00,0.00,VWS V14.01,2013-05-07 02:49:00,
2013-05-06 22:54:00,49.1,48.0,30.21,SE,145,0.0,6.0,96,0.00,,,0.00,0.00,VWS V14.01,2013-05-07 02:54:00,
2013-05-06 22:59:00,49.0,47.9,30.21,SE,145,0.0,6.0,96,0.00,,,0.00,0.00,VWS V14.01,2013-05-07 02:59:00,
2013-05-06 23:00:00,48.8,47.7,30.22,ESE,122,5.0,8.0,96,0.00,,,0.00,0.00,VWS V14.01,2013-05-07 03:00:00,
2013-05-06 23:04:00,49.0,47.9,30.21,East,101,2.0,4.0,96,0.00,,,0.00,0.00,VWS V14.01,2013-05-07 03:04:00,
2013-05-06 23:09:00,48.7,47.6,30.21,East,89,1.0,4.0,96,0.00,,,0.00,0.00,VWS V14.01,2013-05-07 03:09:00,
2013-05-06 23:14:00,48.5,47.4,30.21,East,80,2.0,4.0,96,0.00,,,0.00,0.00,VWS V14.01,2013-05-07 03:14:00,
2013-05-06 23:15:00,48.8,47.7,30.22,ESE,122,7.0,8.0,96,0.00,,,0.00,0.00,VWS V14.01,2013-05-07 03:15:00,
2013-05-06 23:19:00,48.4,47.3,30.21,East,80,2.0,3.0,96,0.00,,,0.00,0.00,VWS V14.01,2013-05-07 03:19:00,
2013-05-06 23:24:00,48.2,47.1,30.20,East,80,0.0,3.0,96,0.00,,,0.00,0.00,VWS V14.01,2013-05-07 03:24:00,
2013-05-06 23:29:00,48.1,47.0,30.20,East,80,0.0,3.0,96,0.00,,,0.00,0.00,VWS V14.01,2013-05-07 03:29:00,
2013-05-06 23:30:00,49.1,48.3,30.21,SSE,151,0.0,7.0,97,0.00,,,0.00,0.00,VWS V14.01,2013-05-07 03:30:00,
2013-05-06 23:35:00,47.9,46.8,30.20,East,80,0.0,3.0,96,0.00,,,0.00,0.00,VWS V14.01,2013-05-07 03:35:00,
2013-05-06 23:40:00,47.9,47.1,30.20,East,80,0.0,3.0,97,0.00,,,0.00,0.00,VWS V14.01,2013-05-07 03:40:00,
2013-05-06 23:45:00,47.8,47.0,30.20,East,80,0.0,3.0,97,0.00,,,0.00,0.00,VWS V14.01,2013-05-07 03:45:00,
2013-05-06 23:50:00,47.8,47.0,30.20,East,80,0.0,0.0,97,0.00,,,0.00,0.00,VWS V14.01,2013-05-07 03:50:00,
2013-05-06 23:55:00,47.6,46.8,30.20,East,80,0.0,0.0,97,0.00,,,0.00,0.00,VWS V14.01,2013-05-07 03:55:00,